Time;durP1;ratioP1;P1;durP2;ratioP2;P2;SDS_P1;SDS_P2;PMS_P1;PMS_P2;Temp;Humidity;BMP_temperature;BMP_pressure;BME280_temperature;BME280_humidity;BME280_pressure;Samples;Min_cycle;Max_cycle;Signal;HPM_P1;HPM_P2
2022/08/19 00:01:03;;;;;;;15.32;13.65;;;;;;;20.31;100.00;98338.69;2171607;81;21466;-83
2022/08/19 00:04:03;;;;;;;15.50;13.98;;;;;;;20.31;100.00;98333.89;2177745;81;20999;-86
2022/08/19 00:07:04;;;;;;;14.30;12.78;;;;;;;20.32;100.00;98328.84;2171608;81;20989;-85
2022/08/19 00:10:05;;;;;;;14.15;12.95;;;;;;;20.32;100.00;98324.33;2171702;82;21443;-85
2022/08/19 00:13:06;;;;;;;14.47;13.00;;;;;;;20.33;100.00;98335.23;2174804;80;20982;-85
2022/08/19 00:16:06;;;;;;;16.77;14.98;;;;;;;20.33;100.00;98331.25;2185329;81;21010;-84
2022/08/19 00:19:07;;;;;;;16.27;14.65;;;;;;;20.32;100.00;98326.19;2185215;81;21002;-85
2022/08/19 00:22:08;;;;;;;15.88;13.72;;;;;;;20.32;100.00;98324.86;2177584;81;21009;-85
2022/08/19 00:25:09;;;;;;;15.45;13.95;;;;;;;20.29;100.00;98322.16;2183800;80;21057;-84
2022/08/19 00:28:10;;;;;;;16.02;14.45;;;;;;;20.31;100.00;98322.73;2184740;81;21002;-84
2022/08/19 00:31:10;;;;;;;15.48;13.93;;;;;;;20.29;100.00;98314.71;2184926;81;21583;-84
2022/08/19 00:34:11;;;;;;;17.12;15.28;;;;;;;20.30;100.00;98315.81;2179122;80;20944;-84
2022/08/19 00:37:12;;;;;;;16.48;14.87;;;;;;;20.30;100.00;98318.47;2171864;81;21083;-83
2022/08/19 00:40:13;;;;;;;15.60;14.10;;;;;;;20.31;100.00;98315.28;2173266;80;21460;-84
2022/08/19 00:43:14;;;;;;;17.23;13.55;;;;;;;20.33;100.00;98313.17;2184258;80;21022;-85
2022/08/19 00:46:14;;;;;;;15.55;14.15;;;;;;;20.32;100.00;98312.37;2171867;82;21023;-84
2022/08/19 00:49:15;;;;;;;15.88;13.48;;;;;;;20.33;100.00;98319.81;2171860;82;21003;-84
2022/08/19 00:52:16;;;;;;;16.30;14.38;;;;;;;20.33;100.00;98316.63;2182354;81;20985;-84
2022/08/19 00:55:18;;;;;;;16.90;15.05;;;;;;;20.32;100.00;98318.22;2174992;81;21522;-84
2022/08/19 00:58:19;;;;;;;15.83;14.00;;;;;;;20.31;100.00;98317.94;2174880;81;21033;-85
2022/08/19 01:01:19;;;;;;;17.32;15.58;;;;;;;20.31;100.00;98313.95;2175405;82;21044;-85
2022/08/19 01:04:20;;;;;;;18.27;13.95;;;;;;;20.31;100.00;98307.31;2173967;81;20979;-85
2022/08/19 01:07:21;;;;;;;15.45;13.80;;;;;;;20.31;100.00;98307.31;2176643;81;20977;-84
2022/08/19 01:10:22;;;;;;;14.03;12.65;;;;;;;20.30;100.00;98305.18;2184689;80;20978;-84
2022/08/19 01:13:22;;;;;;;15.45;14.05;;;;;;;20.30;100.00;98305.68;2181537;81;21550;-84
2022/08/19 01:16:23;;;;;;;15.40;13.00;;;;;;;20.31;100.00;98310.77;2173017;81;20980;-84
2022/08/19 01:19:24;;;;;;;14.40;12.95;;;;;;;20.31;100.00;98309.44;2181762;81;21027;-84
2022/08/19 01:22:25;;;;;;;16.17;13.65;;;;;;;20.31;100.00;98309.97;2185257;81;21038;-84
2022/08/19 01:25:26;;;;;;;14.90;13.30;;;;;;;20.31;100.00;98303.32;2177325;81;21027;-84
2022/08/19 01:28:27;;;;;;;16.97;14.73;;;;;;;20.33;100.00;98305.20;2185421;81;20990;-84
2022/08/19 01:31:30;;;;;;;15.03;13.48;;;;;;;20.33;100.00;98303.86;2185102;81;21002;-84
2022/08/19 01:34:31;;;;;;;15.48;13.88;;;;;;;20.34;100.00;98302.81;2176929;81;20976;-85
2022/08/19 01:37:31;;;;;;;16.75;13.65;;;;;;;20.34;100.00;98295.63;2171754;82;21020;-84
2022/08/19 01:40:35;;;;;;;18.15;13.40;;;;;;;20.35;100.00;98292.45;2183636;81;21488;-84
2022/08/19 01:43:36;;;;;;;15.85;14.30;;;;;;;20.32;100.00;98288.45;2179987;81;21015;-84
2022/08/19 01:46:37;;;;;;;17.42;14.35;;;;;;;20.32;100.00;98293.77;2171561;81;21119;-86
2022/08/19 01:49:38;;;;;;;15.70;14.13;;;;;;;20.27;100.00;98288.91;2171705;82;21323;-85
2022/08/19 01:52:38;;;;;;;14.90;13.38;;;;;;;20.27;100.00;98288.91;2175571;81;21032;-84
2022/08/19 01:55:39;;;;;;;15.53;13.75;;;;;;;20.26;100.00;98288.64;2180266;81;20969;-84
2022/08/19 01:58:40;;;;;;;16.65;13.65;;;;;;;20.24;100.00;98283.58;2185301;81;21096;-85
2022/08/19 02:01:41;;;;;;;17.75;14.80;;;;;;;20.22;100.00;98279.05;2185381;80;21000;-85
2022/08/19 02:04:41;;;;;;;16.77;14.78;;;;;;;20.20;100.00;98273.16;2176250;80;20967;-85
2022/08/19 02:07:44;;;;;;;16.23;14.47;;;;;;;20.19;100.00;98270.23;2171961;81;20995;-85
2022/08/19 02:10:45;;;;;;;18.52;14.85;;;;;;;20.18;100.00;98276.08;2171917;82;21027;-84
2022/08/19 02:13:45;;;;;;;16.25;14.63;;;;;;;20.14;100.00;98274.19;2175137;81;20936;-85
2022/08/19 02:16:46;;;;;;;16.48;14.60;;;;;;;20.15;100.00;98275.27;2171944;81;20991;-84
2022/08/19 02:19:48;;;;;;;23.65;15.43;;;;;;;20.15;100.00;98279.25;2171875;82;21519;-85
2022/08/19 02:22:49;;;;;;;17.12;14.90;;;;;;;20.12;100.00;98267.80;2175534;80;21104;-85
2022/08/19 02:25:50;;;;;;;14.23;12.82;;;;;;;20.12;100.00;98268.33;2180617;80;21508;-84
2022/08/19 02:28:50;;;;;;;15.60;14.00;;;;;;;20.12;100.00;98263.81;2184383;81;21055;-84
2022/08/19 02:31:51;;;;;;;15.60;13.98;;;;;;;20.11;100.00;98258.73;2185246;80;20991;-85
2022/08/19 02:34:52;;;;;;;15.20;13.78;;;;;;;20.10;100.00;98253.94;2185081;81;21149;-85
2022/08/19 02:41:12;;;;;;;15.78;14.18;;;;;;;20.10;100.00;98248.63;2190142;81;20999;-85
2022/08/19 02:44:13;;;;;;;17.42;13.60;;;;;;;20.08;100.00;98244.09;2182179;81;20982;-85
2022/08/19 02:47:14;;;;;;;15.55;13.93;;;;;;;20.07;100.00;98247.81;2181761;81;21070;-84
2022/08/19 02:50:15;;;;;;;33.10;21.48;;;;;;;20.08;100.00;98249.41;2182043;82;21063;-85
2022/08/19 02:53:16;;;;;;;23.60;16.48;;;;;;;20.08;100.00;98250.74;2182043;82;21006;-86
2022/08/19 02:56:17;;;;;;;21.33;16.12;;;;;;;20.10;100.00;98247.30;2181750;81;21023;-85
2022/08/19 02:59:18;;;;;;;17.67;14.87;;;;;;;20.12;100.00;98249.20;2181955;82;21039;-85
2022/08/19 03:02:19;;;;;;;15.18;13.55;;;;;;;20.12;100.00;98251.86;2181965;82;21034;-85
2022/08/19 03:05:19;;;;;;;15.60;14.03;;;;;;;20.16;100.00;98256.13;2181965;81;20994;-85
2022/08/19 03:08:20;;;;;;;16.60;13.60;;;;;;;20.16;100.00;98256.13;2181860;82;21063;-85
2022/08/19 03:11:21;;;;;;;14.07;12.70;;;;;;;20.17;100.00;98263.84;2181219;82;20935;-85
2022/08/19 03:14:22;;;;;;;16.35;13.38;;;;;;;20.20;100.00;98275.82;2181648;80;20924;-85
2022/08/19 03:17:23;;;;;;;14.98;13.48;;;;;;;20.23;100.00;98272.68;2181783;82;20966;-86
2022/08/19 03:20:25;;;;;;;14.45;13.00;;;;;;;20.23;100.00;98269.22;2181598;82;21076;-85
2022/08/19 03:23:26;;;;;;;14.85;12.73;;;;;;;20.20;100.00;98269.17;2181467;80;20980;-86
2022/08/19 03:26:27;;;;;;;16.65;14.93;;;;;;;20.21;100.00;98272.63;2181830;82;21475;-86
2022/08/19 03:29:27;;;;;;;17.57;13.88;;;;;;;20.20;100.00;98272.36;2182089;82;20963;-85
2022/08/19 03:32:28;;;;;;;16.05;13.05;;;;;;;20.18;100.00;98270.77;2181861;81;21017;-85
2022/08/19 03:35:29;;;;;;;14.80;13.25;;;;;;;20.21;100.00;98276.13;2182117;82;21000;-82
2022/08/19 03:38:29;;;;;;;15.30;12.88;;;;;;;20.29;100.00;98278.83;2181324;81;21168;-83
2022/08/19 03:41:31;;;;;;;15.50;13.72;;;;;;;20.34;100.00;98277.02;2181900;81;21012;-83
2022/08/19 03:44:37;;;;;;;15.15;13.75;;;;;;;20.37;100.00;98287.14;2181522;80;21004;-84
2022/08/19 03:47:37;;;;;;;16.00;13.70;;;;;;;20.40;100.00;98293.83;2181900;80;21020;-84
2022/08/19 03:50:38;;;;;;;17.40;15.63;;;;;;;20.42;100.00;98292.52;2167204;82;21033;-85
2022/08/19 03:53:39;;;;;;;15.63;14.10;;;;;;;20.43;100.00;98286.17;2181684;81;21427;-83
2022/08/19 03:56:40;;;;;;;13.08;11.88;;;;;;;20.44;100.00;98280.33;2181896;82;21013;-83
2022/08/19 03:59:40;;;;;;;14.55;13.32;;;;;;;20.41;100.00;98281.61;2181863;80;21041;-83
2022/08/19 04:02:41;;;;;;;20.27;13.18;;;;;;;20.45;100.00;98293.89;2180881;80;21030;-85
2022/08/19 04:05:42;;;;;;;14.75;13.25;;;;;;;20.50;100.00;98287.83;2180690;82;21370;-86
2022/08/19 04:08:43;;;;;;;15.15;13.55;;;;;;;20.56;100.00;98289.45;2181818;82;21557;-85
2022/08/19 04:11:44;;;;;;;15.15;13.03;;;;;;;20.63;100.00;98298.82;2181722;81;21550;-85
2022/08/19 04:14:44;;;;;;;14.23;12.23;;;;;;;20.73;100.00;98304.75;2181889;82;21629;-85
2022/08/19 04:17:45;;;;;;;13.50;12.13;;;;;;;20.89;100.00;98308.33;2182134;82;21021;-85
2022/08/19 04:20:48;;;;;;;14.60;13.05;;;;;;;21.06;100.00;98304.98;2181492;81;21005;-85
2022/08/19 04:23:49;;;;;;;17.60;13.18;;;;;;;21.28;100.00;98295.54;2181398;80;21597;-88
2022/08/19 04:26:50;;;;;;;14.50;13.00;;;;;;;21.48;100.00;98279.65;2181475;82;20994;-84
2022/08/19 04:29:50;;;;;;;14.05;12.75;;;;;;;21.73;100.00;98280.81;2181602;80;21028;-85
2022/08/19 04:32:51;;;;;;;19.92;14.70;;;;;;;21.84;100.00;98281.90;2181445;80;20944;-87
2022/08/19 04:35:54;;;;;;;14.78;13.40;;;;;;;22.04;100.00;98285.70;2159959;82;21491;-85
2022/08/19 04:38:54;;;;;;;11.57;10.58;;;;;;;22.24;100.00;98287.09;2181852;81;21039;-84
2022/08/19 04:45:14;;;;;;;13.40;12.10;;;;;;;22.31;100.00;98288.14;2181910;81;21960;-85
2022/08/19 04:48:15;;;;;;;15.32;11.85;;;;;;;22.32;100.00;98289.77;2177652;82;20947;-83
2022/08/19 04:51:16;;;;;;;11.28;10.18;;;;;;;22.40;100.00;98288.70;2172155;81;21029;-83
2022/08/19 04:54:17;;;;;;;12.60;11.43;;;;;;;22.50;100.00;98299.11;2173583;81;21061;-84
2022/08/19 04:57:18;;;;;;;12.00;10.88;;;;;;;22.53;100.00;98295.36;2179026;82;21013;-84
2022/08/19 05:00:18;;;;;;;13.30;11.43;;;;;;;22.54;100.00;98296.16;2180063;81;20998;-84
2022/08/19 05:03:19;;;;;;;16.23;12.68;;;;;;;22.54;100.00;98294.83;2186159;81;20927;-80
2022/08/19 05:06:20;;;;;;;14.53;13.10;;;;;;;22.52;100.00;98296.44;2187702;81;21030;-82
2022/08/19 05:09:21;;;;;;;14.20;12.63;;;;;;;22.51;100.00;98297.50;2187307;81;21017;-81
2022/08/19 05:12:22;;;;;;;14.30;12.93;;;;;;;22.49;100.00;98303.61;2177849;81;21575;-82
2022/08/19 05:15:23;;;;;;;14.53;12.78;;;;;;;22.54;100.00;98303.63;2172175;82;20941;-83
2022/08/19 05:25:01;;;;;;;14.03;12.60;;;;;;;22.99;100.00;98305.49;2181991;82;20991;-82
2022/08/19 05:28:02;;;;;;;14.07;12.78;;;;;;;23.16;100.00;98305.20;2182046;80;21007;-82
2022/08/19 05:31:06;;;;;;;13.22;12.00;;;;;;;23.32;100.00;98311.81;2182140;82;21003;-85
2022/08/19 05:34:06;;;;;;;16.73;13.00;;;;;;;23.49;100.00;98314.42;2180627;80;20975;-84
2022/08/19 05:37:08;;;;;;;13.08;11.95;;;;;;;23.70;100.00;98315.73;2181825;82;20945;-85
2022/08/19 05:40:08;;;;;;;14.47;12.30;;;;;;;23.92;100.00;98317.48;2181755;80;20995;-84
2022/08/19 05:43:09;;;;;;;12.68;11.43;;;;;;;24.12;100.00;98317.90;2181694;80;20959;-85
2022/08/19 05:46:11;;;;;;;13.10;11.43;;;;;;;24.27;100.00;98327.72;2181775;82;21612;-84
2022/08/19 05:49:17;;;;;;;12.78;11.43;;;;;;;24.30;100.00;98328.48;2181749;82;21430;-83
2022/08/19 05:52:19;;;;;;;12.55;11.43;;;;;;;24.32;100.00;98329.86;2181296;81;21052;-84
2022/08/19 05:55:20;;;;;;;12.68;11.57;;;;;;;24.46;100.00;98337.25;2181957;80;20968;-84
2022/08/19 05:58:21;;;;;;;13.78;12.47;;;;;;;24.57;100.00;98348.13;2182179;82;21467;-83
2022/08/19 06:01:22;;;;;;;13.65;12.35;;;;;;;24.66;100.00;98339.77;2181998;82;20963;-83
2022/08/19 06:04:23;;;;;;;13.45;12.05;;;;;;;24.71;100.00;98335.72;2181592;80;21484;-84
2022/08/19 06:07:23;;;;;;;13.13;11.85;;;;;;;24.75;100.00;98342.09;2182118;82;20979;-84
2022/08/19 06:10:26;;;;;;;14.00;11.40;;;;;;;24.74;100.00;98346.39;2181131;82;21046;-85
2022/08/19 06:13:27;;;;;;;13.20;11.80;;;;;;;24.80;100.00;98338.59;2181976;82;20929;-83
2022/08/19 06:16:28;;;;;;;11.90;10.93;;;;;;;24.93;100.00;98343.28;2182014;80;20979;-83
2022/08/19 06:19:32;;;;;;;13.43;12.15;;;;;;;25.04;100.00;98338.11;2182172;82;20947;-83
2022/08/19 06:22:33;;;;;;;13.00;11.78;;;;;;;25.09;100.00;98341.30;2181819;80;21062;-81
2022/08/19 06:25:34;;;;;;;12.50;11.28;;;;;;;25.15;100.00;98327.58;2182182;82;21006;-82
2022/08/19 06:28:34;;;;;;;12.95;11.73;;;;;;;25.26;100.00;98327.47;2182084;82;21002;-82
2022/08/19 06:31:36;;;;;;;11.65;10.23;;;;;;;25.32;100.00;98335.15;2181228;80;21127;-82
2022/08/19 06:34:37;;;;;;;11.63;10.72;;;;;;;25.49;100.00;98346.22;2181333;80;21078;-83
2022/08/19 06:37:38;;;;;;;12.10;11.00;;;;;;;25.66;100.00;98343.62;2181719;81;21330;-83
2022/08/19 06:40:38;;;;;;;10.90;9.90;;;;;;;25.81;100.00;98338.11;2181460;82;20967;-84
2022/08/19 06:43:41;;;;;;;12.15;10.45;;;;;;;25.86;100.00;98339.37;2181598;80;20984;-82
2022/08/19 06:46:42;;;;;;;10.88;10.05;;;;;;;25.94;100.00;98342.75;2181858;82;21067;-83
2022/08/19 06:49:42;;;;;;;11.38;10.13;;;;;;;26.00;100.00;98341.61;2181917;82;20991;-82
2022/08/19 06:52:43;;;;;;;11.57;10.68;;;;;;;25.98;100.00;98338.43;2181540;81;20968;-82
2022/08/19 06:55:44;;;;;;;12.15;10.93;;;;;;;25.98;100.00;98336.30;2181834;80;21009;-82
2022/08/19 06:58:46;;;;;;;12.00;10.58;;;;;;;26.06;100.00;98340.47;2182040;82;21086;-83
2022/08/19 07:01:47;;;;;;;12.15;10.28;;;;;;;26.07;100.00;98335.89;2181813;81;20991;-84
2022/08/19 07:04:48;;;;;;;11.88;10.80;;;;;;;26.07;100.00;98333.22;2181933;82;20968;-85
2022/08/19 07:07:49;;;;;;;12.88;11.63;;;;;;;26.10;100.00;98337.98;2181826;80;20995;-83
2022/08/19 07:10:50;;;;;;;12.18;11.20;;;;;;;26.02;100.00;98338.63;2181998;82;21087;-84
2022/08/19 07:13:51;;;;;;;12.07;11.08;;;;;;;25.98;100.00;98339.77;2181883;82;21015;-87
2022/08/19 07:16:53;;;;;;;13.00;10.50;;;;;;;26.06;100.00;98344.48;2181956;82;21059;-85
2022/08/19 07:19:54;;;;;;;12.50;11.40;;;;;;;26.19;100.00;98348.88;2181676;80;21055;-84
2022/08/19 07:22:55;;;;;;;15.23;10.98;;;;;;;26.31;100.00;98350.56;2181707;82;21012;-88
2022/08/19 07:25:56;;;;;;;12.13;10.93;;;;;;;26.45;100.00;98360.07;2181712;80;21026;-86
2022/08/19 07:28:58;;;;;;;13.43;10.85;;;;;;;26.66;100.00;98358.66;2181948;82;20988;-83
2022/08/19 07:31:59;;;;;;;11.03;9.98;;;;;;;26.87;98.88;98361.80;2181537;80;21015;-85
2022/08/19 07:35:00;;;;;;;10.75;9.70;;;;;;;27.06;92.98;98361.23;2182042;81;20968;-84
2022/08/19 07:38:02;;;;;;;11.00;9.93;;;;;;;27.19;93.13;98374.45;2181818;80;21016;-87
2022/08/19 07:41:05;;;;;;;13.08;11.65;;;;;;;27.38;91.94;98375.17;2160855;82;21034;-86
2022/08/19 07:44:07;;;;;;;10.93;10.03;;;;;;;27.53;87.62;98374.11;2182130;82;21022;-88
2022/08/19 07:47:08;;;;;;;13.50;10.78;;;;;;;27.56;87.09;98368.67;2182129;82;21579;-90
2022/08/19 07:50:08;;;;;;;13.03;10.30;;;;;;;27.61;87.01;98363.17;2181928;80;20986;-88
2022/08/19 07:53:11;;;;;;;11.33;10.35;;;;;;;27.74;87.23;98373.17;2182860;82;21478;-89
2022/08/19 07:56:12;;;;;;;11.97;10.75;;;;;;;27.86;85.54;98375.35;2181970;82;21553;-88
2022/08/19 07:59:13;;;;;;;11.10;10.25;;;;;;;27.93;84.35;98377.89;2182964;81;21006;-86
2022/08/19 08:02:14;;;;;;;11.75;10.82;;;;;;;28.05;84.41;98380.06;2181906;80;21265;-87
2022/08/19 08:11:56;;;;;;;10.20;9.30;;;;;;;28.27;81.44;98381.47;2162011;82;21055;-91
2022/08/19 08:14:57;;;;;;;11.10;10.18;;;;;;;28.33;81.24;98391.03;2181965;80;20963;-89
2022/08/19 08:17:58;;;;;;;11.03;9.85;;;;;;;28.37;79.03;98386.41;2181686;82;20971;-90
2022/08/19 08:20:59;;;;;;;10.78;9.78;;;;;;;28.41;78.12;98390.08;2181996;81;21034;-90
2022/08/19 08:24:00;;;;;;;10.70;9.80;;;;;;;28.47;78.14;98383.48;2131996;81;22100;-86
2022/08/19 08:27:00;;;;;;;11.22;10.28;;;;;;;28.53;77.36;98394.37;2132176;81;21551;-89
2022/08/19 08:30:01;;;;;;;11.73;10.50;;;;;;;28.55;73.49;98388.95;2098288;83;21114;-88
2022/08/19 08:33:02;;;;;;;11.28;10.48;;;;;;;28.64;76.55;98394.95;2118079;82;21050;-91
2022/08/19 08:36:03;;;;;;;11.28;10.28;;;;;;;28.63;72.57;98392.02;2091282;83;21607;-90
2022/08/19 08:39:04;;;;;;;11.05;10.10;;;;;;;28.64;71.04;98394.95;2093754;83;21009;-90
2022/08/19 08:42:05;;;;;;;11.40;10.30;;;;;;;28.67;71.41;98397.81;2096279;83;21009;-90
2022/08/19 08:45:06;;;;;;;15.13;9.73;;;;;;;28.77;72.47;98404.86;2097678;83;21009;-90
2022/08/19 08:48:07;;;;;;;10.48;9.50;;;;;;;28.90;72.66;98404.05;2093727;85;20986;-91
2022/08/19 08:51:08;;;;;;;11.15;10.03;;;;;;;29.01;69.12;98407.29;2093772;85;21009;-88
2022/08/19 08:54:09;;;;;;;11.12;10.05;;;;;;;29.15;71.17;98418.77;2106032;83;20949;-89
2022/08/19 08:57:10;;;;;;;13.25;10.20;;;;;;;29.26;70.88;98421.48;2095811;83;21017;-88
2022/08/19 09:00:12;;;;;;;14.50;10.63;;;;;;;29.36;70.18;98407.73;2101872;83;21055;-87
2022/08/19 09:03:13;;;;;;;12.43;10.55;;;;;;;29.53;70.23;98415.66;2112635;83;21135;-89
2022/08/19 09:06:16;;;;;;;12.03;11.03;;;;;;;29.58;67.10;98421.73;2108685;84;21055;-88
2022/08/19 09:09:17;;;;;;;9.63;8.73;;;;;;;29.65;66.91;98425.33;2105463;83;21136;-89
2022/08/19 09:12:17;;;;;;;11.53;9.80;;;;;;;29.69;66.87;98416.84;2113335;83;21063;-90
2022/08/19 09:15:18;;;;;;;10.80;9.73;;;;;;;29.77;67.37;98416.09;2085366;84;21106;-89
2022/08/19 09:18:19;;;;;;;11.95;10.70;;;;;;;29.86;65.97;98416.91;2113937;83;21521;-90
2022/08/19 09:21:25;;;;;;;10.35;9.35;;;;;;;29.93;66.61;98406.46;2119051;84;21047;-89
2022/08/19 09:24:26;;;;;;;10.45;9.43;;;;;;;30.00;65.86;98414.90;2112314;83;21028;-90
2022/08/19 09:27:27;;;;;;;11.57;10.40;;;;;;;30.04;65.34;98411.00;2118837;84;21142;-90
2022/08/19 09:30:27;;;;;;;11.35;10.25;;;;;;;30.12;65.22;98413.52;2112872;83;21030;-90
2022/08/19 09:33:28;;;;;;;11.25;10.13;;;;;;;30.20;65.51;98408.13;2114161;83;21111;-89
2022/08/19 09:36:32;;;;;;;11.10;9.93;;;;;;;30.35;65.04;98397.41;2140273;83;20945;-90
2022/08/19 09:39:32;;;;;;;11.38;10.13;;;;;;;30.42;63.77;98396.39;2161335;81;21039;-89
2022/08/19 09:42:33;;;;;;;11.95;10.65;;;;;;;30.51;63.16;98400.45;2162294;82;21026;-90
2022/08/19 09:45:34;;;;;;;12.30;9.58;;;;;;;30.62;62.81;98399.56;2161884;82;21057;-90
2022/08/19 09:48:35;;;;;;;12.25;9.23;;;;;;;30.69;60.83;98393.16;2161107;82;21042;-89
2022/08/19 09:51:36;;;;;;;10.65;9.53;;;;;;;30.74;59.04;98397.86;2162236;82;21304;-89
2022/08/19 09:54:37;;;;;;;10.55;9.48;;;;;;;30.81;59.31;98394.66;2162048;82;20991;-90
2022/08/19 09:57:37;;;;;;;13.38;9.65;;;;;;;30.88;58.34;98395.52;2162045;82;20972;-90
2022/08/19 10:00:38;;;;;;;10.13;9.33;;;;;;;30.95;58.26;98391.23;2162444;82;21050;-89
2022/08/19 10:03:39;;;;;;;8.98;8.18;;;;;;;31.06;56.90;98385.71;2162222;82;21014;-90
2022/08/19 10:06:41;;;;;;;9.98;9.05;;;;;;;31.17;55.26;98385.36;2162050;82;21042;-89
2022/08/19 10:09:42;;;;;;;9.90;9.08;;;;;;;31.25;55.03;98377.26;2162012;82;21075;-88
2022/08/19 10:12:46;;;;;;;9.50;8.70;;;;;;;31.32;56.68;98374.85;2142784;82;21027;-90
2022/08/19 10:15:45;;;;;;;11.48;9.45;;;;;;;31.43;55.50;98374.72;2162160;82;21026;-90
2022/08/19 10:18:49;;;;;;;8.13;7.47;;;;;;;31.50;53.42;98366.67;2162018;82;21058;-90
2022/08/19 10:21:49;;;;;;;9.43;8.45;;;;;;;31.55;51.63;98369.20;2162217;82;20994;-90
2022/08/19 10:24:51;;;;;;;11.15;9.43;;;;;;;31.56;53.25;98363.47;2161714;82;21018;-89
2022/08/19 10:27:52;;;;;;;8.78;7.97;;;;;;;31.60;53.37;98365.74;2161567;82;21335;-89
2022/08/19 10:30:53;;;;;;;9.55;8.28;;;;;;;31.67;51.19;98357.91;2161522;82;21474;-89
2022/08/19 10:33:57;;;;;;;8.65;7.70;;;;;;;31.75;52.26;98352.22;2161727;82;21011;-90
2022/08/19 10:36:56;;;;;;;9.88;8.60;;;;;;;31.85;49.17;98360.55;2161786;82;21096;-89
2022/08/19 10:39:57;;;;;;;9.28;8.43;;;;;;;31.91;50.70;98360.05;2162234;82;21503;-90
2022/08/19 10:42:58;;;;;;;9.38;8.28;;;;;;;31.86;48.88;98354.81;2162174;82;21078;-89
2022/08/19 10:45:59;;;;;;;9.70;8.30;;;;;;;31.89;48.07;98358.77;2159245;82;21007;-89
2022/08/19 10:48:59;;;;;;;9.28;8.38;;;;;;;32.00;48.88;98358.61;2155894;82;21015;-89
2022/08/19 10:58:37;;;;;;;8.95;8.25;;;;;;;32.10;48.33;98363.66;2068314;85;21659;-89
2022/08/19 11:01:38;;;;;;;8.23;7.62;;;;;;;32.15;48.92;98360.73;2067749;86;21024;-91
2022/08/19 11:04:39;;;;;;;9.18;8.38;;;;;;;32.22;49.29;98352.09;2067933;86;21108;-90
2022/08/19 11:07:40;;;;;;;10.75;8.20;;;;;;;32.23;47.26;98354.47;2067818;86;21548;-90
2022/08/19 11:10:40;;;;;;;9.48;8.55;;;;;;;32.24;47.20;98358.76;2067563;86;21076;-89
2022/08/19 11:13:42;;;;;;;9.10;7.28;;;;;;;32.30;46.48;98348.56;2067608;86;21659;-89
2022/08/19 11:16:43;;;;;;;8.03;7.33;;;;;;;32.37;46.27;98346.66;2067852;85;21060;-91
2022/08/19 11:19:44;;;;;;;8.80;8.05;;;;;;;32.36;46.42;98343.72;2067984;86;21021;-91
2022/08/19 11:22:44;;;;;;;9.80;8.90;;;;;;;32.39;46.42;98346.58;2067681;86;21571;-89
2022/08/19 11:25:45;;;;;;;9.05;8.03;;;;;;;32.37;44.52;98351.54;2067685;86;21032;-89
2022/08/19 11:28:46;;;;;;;8.68;7.87;;;;;;;32.34;46.44;98337.84;2095733;82;20986;-90
2022/08/19 11:31:47;;;;;;;8.50;7.72;;;;;;;32.28;47.03;98323.70;2161688;82;20975;-88
2022/08/19 11:34:47;;;;;;;8.53;7.72;;;;;;;32.34;46.55;98339.20;2161936;82;21074;-90
2022/08/19 11:37:48;;;;;;;7.83;7.12;;;;;;;32.38;46.81;98332.80;2162152;82;21018;-89
2022/08/19 11:40:49;;;;;;;10.35;7.10;;;;;;;32.47;45.17;98331.37;2161900;82;21019;-89
2022/08/19 11:43:50;;;;;;;9.93;7.55;;;;;;;32.52;46.15;98328.44;2162133;82;21506;-89
2022/08/19 11:46:52;;;;;;;9.20;7.85;;;;;;;32.52;45.06;98323.81;2161929;82;21050;-91
2022/08/19 11:49:53;;;;;;;10.43;7.95;;;;;;;32.54;44.99;98322.13;2161916;82;21038;-90
2022/08/19 11:52:54;;;;;;;7.95;7.15;;;;;;;32.52;45.63;98321.11;2161884;82;21035;-90
2022/08/19 11:55:55;;;;;;;9.28;8.03;;;;;;;32.52;45.32;98322.45;2162110;82;21014;-90
2022/08/19 11:58:59;;;;;;;14.35;7.87;;;;;;;32.63;45.21;98321.48;2162006;82;21046;-89
2022/08/19 12:02:00;;;;;;;7.83;7.03;;;;;;;32.75;44.24;98310.69;2162025;82;21062;-91
2022/08/19 12:05:03;;;;;;;11.28;7.37;;;;;;;32.81;44.06;98303.13;2162035;82;21059;-89
2022/08/19 12:08:03;;;;;;;8.28;7.12;;;;;;;32.80;44.21;98294.77;2162102;82;21502;-90
2022/08/19 12:11:05;;;;;;;7.00;6.42;;;;;;;32.71;41.94;98303.55;2162549;82;21045;-89
2022/08/19 12:14:06;;;;;;;8.55;7.78;;;;;;;32.71;42.71;98298.12;2166441;82;21017;-88
2022/08/19 12:17:08;;;;;;;11.28;6.70;;;;;;;32.76;43.74;98297.93;2165659;82;21026;-89
2022/08/19 12:20:11;;;;;;;12.28;7.40;;;;;;;32.75;41.72;98296.35;2163612;82;21074;-89
2022/08/19 12:23:12;;;;;;;13.30;7.28;;;;;;;32.81;43.36;98296.34;2163953;82;20963;-90
2022/08/19 12:26:12;;;;;;;9.70;8.10;;;;;;;32.78;42.86;98301.09;2162944;82;21046;-88
2022/08/19 12:29:14;;;;;;;16.40;8.13;;;;;;;32.71;43.27;98307.61;2162386;82;21505;-88
2022/08/19 12:32:14;;;;;;;8.28;7.42;;;;;;;32.73;42.48;98304.79;2161844;82;21579;-89
2022/08/19 12:35:15;;;;;;;10.50;8.00;;;;;;;32.74;42.44;98296.91;2161530;82;20995;-89
2022/08/19 12:38:19;;;;;;;7.85;7.05;;;;;;;32.80;43.25;98292.05;2161979;82;21102;-89
2022/08/19 12:41:21;;;;;;;11.10;8.18;;;;;;;32.75;43.52;98297.70;2161860;82;21037;-90
2022/08/19 12:44:22;;;;;;;8.00;6.65;;;;;;;32.77;43.49;98292.17;2161795;82;21023;-89
2022/08/19 12:47:23;;;;;;;8.23;7.42;;;;;;;32.74;43.16;98305.05;2159027;82;21010;-90
2022/08/19 12:50:24;;;;;;;8.90;8.05;;;;;;;32.73;43.18;98310.21;2162133;82;21042;-89
2022/08/19 12:53:25;;;;;;;8.20;7.40;;;;;;;32.68;43.21;98313.15;2162196;82;21010;-88
2022/08/19 12:56:25;;;;;;;8.28;6.97;;;;;;;32.64;42.76;98314.14;2161854;82;21030;-89
2022/08/19 12:59:29;;;;;;;11.97;7.67;;;;;;;32.62;42.82;98311.77;2159996;82;21074;-89
2022/08/19 13:02:31;;;;;;;7.87;6.53;;;;;;;32.71;42.00;98313.03;2161042;82;21134;-87
2022/08/19 13:05:33;;;;;;;7.75;7.05;;;;;;;32.77;41.43;98311.14;2161588;82;21063;-88
2022/08/19 13:08:36;;;;;;;8.60;7.70;;;;;;;32.82;42.20;98307.41;2148262;82;21555;-89
2022/08/19 13:11:36;;;;;;;7.20;6.53;;;;;;;32.82;42.71;98310.13;2160760;82;21086;-87
2022/08/19 13:14:37;;;;;;;12.20;8.03;;;;;;;32.80;42.11;98315.88;2155694;82;21059;-86
2022/08/19 13:17:38;;;;;;;9.33;7.67;;;;;;;32.79;42.77;98313.52;2135303;82;21771;-87
2022/08/19 13:20:40;;;;;;;7.42;6.58;;;;;;;32.73;42.87;98306.71;2157808;82;21030;-89
2022/08/19 13:23:41;;;;;;;7.90;7.08;;;;;;;32.67;42.55;98306.72;2162092;82;21046;-85
2022/08/19 13:26:42;;;;;;;9.20;6.60;;;;;;;32.63;42.43;98305.22;2162012;82;21027;-88
2022/08/19 13:33:10;;;;;;;7.42;6.70;;;;;;;32.61;41.95;98302.63;2161503;82;21035;-86
2022/08/19 13:36:11;;;;;;;10.13;8.58;;;;;;;32.74;41.93;98295.56;2160830;82;20977;-87
2022/08/19 13:39:12;;;;;;;12.53;7.60;;;;;;;32.80;40.59;98294.77;2161572;82;21014;-87
2022/08/19 13:42:13;;;;;;;9.45;7.65;;;;;;;32.85;41.04;98290.52;2162153;82;20944;-85
2022/08/19 13:45:15;;;;;;;11.22;7.12;;;;;;;32.92;41.17;98283.17;2162137;82;21039;-91
2022/08/19 13:48:16;;;;;;;8.08;7.17;;;;;;;33.00;40.80;98288.50;2142398;82;21100;-84
2022/08/19 13:51:16;;;;;;;11.35;8.13;;;;;;;33.05;41.76;98277.44;2162855;81;21006;-86
2022/08/19 13:54:17;;;;;;;8.38;7.62;;;;;;;33.00;41.82;98274.94;2161617;82;20987;-88
2022/08/19 13:57:23;;;;;;;8.10;6.97;;;;;;;32.91;41.73;98278.31;2092904;84;21072;-85
2022/08/19 14:00:26;;;;;;;7.60;6.92;;;;;;;32.82;42.01;98281.09;2089364;84;21092;-86
2022/08/19 14:03:29;;;;;;;7.90;7.10;;;;;;;32.79;42.11;98271.50;2091727;85;21192;-87
2022/08/19 14:06:36;;;;;;;9.45;7.33;;;;;;;32.77;42.27;98273.20;2093257;84;21935;-86
2022/08/19 14:09:39;;;;;;;8.20;7.47;;;;;;;32.76;42.22;98277.03;2074069;84;21109;-87
2022/08/19 14:12:43;;;;;;;9.05;7.50;;;;;;;32.77;42.47;98278.61;2071607;86;21065;-82
2022/08/19 14:15:43;;;;;;;8.30;7.50;;;;;;;32.79;42.10;98276.35;2081181;85;21555;-88
2022/08/19 14:18:45;;;;;;;21.17;8.15;;;;;;;32.79;42.10;98282.34;2087238;85;21494;-87
2022/08/19 14:21:45;;;;;;;10.32;7.20;;;;;;;32.67;42.86;98280.41;2080385;85;21080;-88